sensor_id;sensor_type;location;lat;lon;timestamp;P1;durP1;ratioP1;P2;durP2;ratioP2
3653;SDS011;70277;54.302;10.064;2024-03-23T00:53:26;24.08;;;2.97;;
3653;SDS011;70277;54.302;10.064;2024-03-23T00:55:52;26.67;;;2.95;;
3653;SDS011;70277;54.302;10.064;2024-03-23T00:58:18;24.55;;;2.60;;
3653;SDS011;70277;54.302;10.064;2024-03-23T01:00:43;21.45;;;3.17;;
3653;SDS011;70277;54.302;10.064;2024-03-23T01:03:09;26.48;;;2.67;;
3653;SDS011;70277;54.302;10.064;2024-03-23T01:05:34;23.92;;;3.20;;
3653;SDS011;70277;54.302;10.064;2024-03-23T01:08:00;34.08;;;3.42;;
3653;SDS011;70277;54.302;10.064;2024-03-23T01:10:26;34.97;;;4.32;;
3653;SDS011;70277;54.302;10.064;2024-03-23T01:12:51;34.88;;;3.22;;
3653;SDS011;70277;54.302;10.064;2024-03-23T01:15:17;27.48;;;2.88;;
3653;SDS011;70277;54.302;10.064;2024-03-23T01:17:42;25.58;;;3.05;;
3653;SDS011;70277;54.302;10.064;2024-03-23T01:20:08;22.08;;;2.90;;
3653;SDS011;70277;54.302;10.064;2024-03-23T01:22:34;22.80;;;3.05;;
3653;SDS011;70277;54.302;10.064;2024-03-23T01:24:59;28.20;;;4.10;;
3653;SDS011;70277;54.302;10.064;2024-03-23T01:27:25;39.25;;;3.08;;
3653;SDS011;70277;54.302;10.064;2024-03-23T01:29:50;30.73;;;3.40;;
3653;SDS011;70277;54.302;10.064;2024-03-23T01:32:18;27.25;;;3.17;;
3653;SDS011;70277;54.302;10.064;2024-03-23T01:34:44;28.45;;;2.80;;
3653;SDS011;70277;54.302;10.064;2024-03-23T01:37:09;27.35;;;2.90;;
3653;SDS011;70277;54.302;10.064;2024-03-23T01:39:35;34.50;;;4.35;;
3653;SDS011;70277;54.302;10.064;2024-03-23T01:42:01;30.15;;;3.42;;
3653;SDS011;70277;54.302;10.064;2024-03-23T01:44:27;23.60;;;3.05;;
3653;SDS011;70277;54.302;10.064;2024-03-23T01:46:53;29.77;;;3.30;;
3653;SDS011;70277;54.302;10.064;2024-03-23T01:49:19;22.73;;;3.00;;
3653;SDS011;70277;54.302;10.064;2024-03-23T01:51:45;24.92;;;2.92;;
3653;SDS011;70277;54.302;10.064;2024-03-23T01:54:11;37.00;;;3.63;;
3653;SDS011;70277;54.302;10.064;2024-03-23T01:56:37;27.00;;;3.40;;
3653;SDS011;70277;54.302;10.064;2024-03-23T01:59:02;42.80;;;3.63;;
3653;SDS011;70277;54.302;10.064;2024-03-23T02:01:29;21.88;;;3.15;;
3653;SDS011;70277;54.302;10.064;2024-03-23T02:03:55;27.65;;;3.22;;
3653;SDS011;70277;54.302;10.064;2024-03-23T02:06:20;21.73;;;3.50;;
3653;SDS011;70277;54.302;10.064;2024-03-23T02:08:47;40.88;;;4.20;;
3653;SDS011;70277;54.302;10.064;2024-03-23T02:11:13;31.30;;;2.75;;
3653;SDS011;70277;54.302;10.064;2024-03-23T02:13:39;21.13;;;2.83;;
3653;SDS011;70277;54.302;10.064;2024-03-23T02:16:05;26.02;;;3.08;;
3653;SDS011;70277;54.302;10.064;2024-03-23T02:18:31;27.15;;;3.15;;
3653;SDS011;70277;54.302;10.064;2024-03-23T02:20:58;18.00;;;2.42;;
3653;SDS011;70277;54.302;10.064;2024-03-23T02:23:23;21.88;;;2.53;;
3653;SDS011;70277;54.302;10.064;2024-03-23T02:25:50;21.10;;;2.75;;
3653;SDS011;70277;54.302;10.064;2024-03-23T02:28:16;31.05;;;2.90;;
3653;SDS011;70277;54.302;10.064;2024-03-23T02:30:42;21.83;;;2.75;;
3653;SDS011;70277;54.302;10.064;2024-03-23T02:33:08;21.92;;;3.03;;
3653;SDS011;70277;54.302;10.064;2024-03-23T02:35:34;18.90;;;2.75;;
3653;SDS011;70277;54.302;10.064;2024-03-23T02:38:00;24.88;;;2.55;;
3653;SDS011;70277;54.302;10.064;2024-03-23T02:40:25;26.50;;;3.10;;
3653;SDS011;70277;54.302;10.064;2024-03-23T02:42:51;22.42;;;2.75;;
3653;SDS011;70277;54.302;10.064;2024-03-23T02:45:17;27.40;;;2.95;;
3653;SDS011;70277;54.302;10.064;2024-03-23T02:47:43;28.25;;;3.53;;
3653;SDS011;70277;54.302;10.064;2024-03-23T02:50:09;17.58;;;2.10;;
3653;SDS011;70277;54.302;10.064;2024-03-23T02:52:36;28.52;;;2.42;;
3653;SDS011;70277;54.302;10.064;2024-03-23T02:55:02;26.67;;;2.50;;
3653;SDS011;70277;54.302;10.064;2024-03-23T02:57:28;20.88;;;1.85;;
3653;SDS011;70277;54.302;10.064;2024-03-23T02:59:54;26.45;;;3.85;;
3653;SDS011;70277;54.302;10.064;2024-03-23T03:02:20;19.92;;;2.40;;
3653;SDS011;70277;54.302;10.064;2024-03-23T03:04:46;23.48;;;2.78;;
3653;SDS011;70277;54.302;10.064;2024-03-23T03:07:12;14.85;;;2.35;;
3653;SDS011;70277;54.302;10.064;2024-03-23T03:09:38;14.00;;;1.80;;
3653;SDS011;70277;54.302;10.064;2024-03-23T03:12:05;22.65;;;2.03;;
3653;SDS011;70277;54.302;10.064;2024-03-23T03:14:31;25.48;;;2.33;;
3653;SDS011;70277;54.302;10.064;2024-03-23T03:16:56;15.80;;;2.17;;
3653;SDS011;70277;54.302;10.064;2024-03-23T03:19:22;19.48;;;2.17;;
3653;SDS011;70277;54.302;10.064;2024-03-23T03:21:47;13.85;;;2.40;;
3653;SDS011;70277;54.302;10.064;2024-03-23T03:24:13;16.80;;;2.00;;
3653;SDS011;70277;54.302;10.064;2024-03-23T03:26:39;20.23;;;2.28;;
3653;SDS011;70277;54.302;10.064;2024-03-23T03:29:05;19.92;;;2.95;;
3653;SDS011;70277;54.302;10.064;2024-03-23T03:31:30;25.80;;;2.35;;
3653;SDS011;70277;54.302;10.064;2024-03-23T03:33:56;24.48;;;2.83;;
3653;SDS011;70277;54.302;10.064;2024-03-23T03:36:22;28.48;;;2.30;;
3653;SDS011;70277;54.302;10.064;2024-03-23T03:38:47;24.95;;;2.30;;
3653;SDS011;70277;54.302;10.064;2024-03-23T03:41:13;20.65;;;2.22;;
3653;SDS011;70277;54.302;10.064;2024-03-23T03:43:39;23.08;;;2.60;;
3653;SDS011;70277;54.302;10.064;2024-03-23T03:46:04;21.20;;;2.80;;
3653;SDS011;70277;54.302;10.064;2024-03-23T03:48:30;24.00;;;2.42;;
3653;SDS011;70277;54.302;10.064;2024-03-23T03:50:55;23.58;;;1.98;;
3653;SDS011;70277;54.302;10.064;2024-03-23T03:53:21;17.30;;;2.75;;
3653;SDS011;70277;54.302;10.064;2024-03-23T03:55:47;21.58;;;3.70;;
3653;SDS011;70277;54.302;10.064;2024-03-23T03:58:12;25.42;;;2.92;;
3653;SDS011;70277;54.302;10.064;2024-03-23T04:00:38;29.92;;;3.22;;
3653;SDS011;70277;54.302;10.064;2024-03-23T04:03:04;21.58;;;2.30;;
3653;SDS011;70277;54.302;10.064;2024-03-23T04:05:30;24.58;;;2.88;;
3653;SDS011;70277;54.302;10.064;2024-03-23T04:07:56;28.67;;;2.70;;
3653;SDS011;70277;54.302;10.064;2024-03-23T04:10:21;32.10;;;3.55;;
3653;SDS011;70277;54.302;10.064;2024-03-23T04:12:47;28.33;;;2.97;;
3653;SDS011;70277;54.302;10.064;2024-03-23T04:15:13;25.55;;;3.00;;
3653;SDS011;70277;54.302;10.064;2024-03-23T04:17:39;31.35;;;3.38;;
3653;SDS011;70277;54.302;10.064;2024-03-23T04:20:06;20.63;;;3.00;;
3653;SDS011;70277;54.302;10.064;2024-03-23T04:22:39;37.88;;;3.88;;
3653;SDS011;70277;54.302;10.064;2024-03-23T04:25:05;24.00;;;3.25;;
3653;SDS011;70277;54.302;10.064;2024-03-23T04:27:36;25.92;;;3.42;;
3653;SDS011;70277;54.302;10.064;2024-03-23T04:30:02;30.52;;;4.10;;
3653;SDS011;70277;54.302;10.064;2024-03-23T04:32:29;20.90;;;2.60;;
3653;SDS011;70277;54.302;10.064;2024-03-23T04:34:55;30.23;;;3.90;;
3653;SDS011;70277;54.302;10.064;2024-03-23T04:37:21;33.10;;;4.25;;
3653;SDS011;70277;54.302;10.064;2024-03-23T04:39:47;22.33;;;2.85;;
3653;SDS011;70277;54.302;10.064;2024-03-23T04:42:14;20.40;;;3.15;;
3653;SDS011;70277;54.302;10.064;2024-03-23T04:44:41;30.10;;;5.60;;
3653;SDS011;70277;54.302;10.064;2024-03-23T04:47:07;33.08;;;3.97;;
3653;SDS011;70277;54.302;10.064;2024-03-23T04:49:32;32.80;;;4.00;;
3653;SDS011;70277;54.302;10.064;2024-03-23T04:51:58;29.20;;;4.30;;
3653;SDS011;70277;54.302;10.064;2024-03-23T04:54:23;36.88;;;4.53;;
3653;SDS011;70277;54.302;10.064;2024-03-23T04:56:49;23.85;;;3.63;;
3653;SDS011;70277;54.302;10.064;2024-03-23T04:59:15;36.55;;;4.22;;
3653;SDS011;70277;54.302;10.064;2024-03-23T05:01:41;27.25;;;3.90;;
3653;SDS011;70277;54.302;10.064;2024-03-23T05:04:07;23.83;;;4.40;;
3653;SDS011;70277;54.302;10.064;2024-03-23T05:06:33;30.55;;;4.00;;
3653;SDS011;70277;54.302;10.064;2024-03-23T05:08:59;28.83;;;3.88;;
3653;SDS011;70277;54.302;10.064;2024-03-23T05:11:31;21.95;;;4.10;;
3653;SDS011;70277;54.302;10.064;2024-03-23T05:13:57;26.95;;;3.90;;
3653;SDS011;70277;54.302;10.064;2024-03-23T05:16:23;30.23;;;4.13;;
3653;SDS011;70277;54.302;10.064;2024-03-23T05:18:48;28.27;;;4.18;;
3653;SDS011;70277;54.302;10.064;2024-03-23T05:21:14;27.98;;;4.15;;
3653;SDS011;70277;54.302;10.064;2024-03-23T05:23:39;32.58;;;4.38;;
3653;SDS011;70277;54.302;10.064;2024-03-23T05:26:05;24.45;;;4.45;;
3653;SDS011;70277;54.302;10.064;2024-03-23T05:28:31;26.42;;;4.88;;
3653;SDS011;70277;54.302;10.064;2024-03-23T05:30:56;40.58;;;5.05;;
3653;SDS011;70277;54.302;10.064;2024-03-23T05:33:22;36.97;;;7.47;;
3653;SDS011;70277;54.302;10.064;2024-03-23T05:35:55;39.65;;;5.63;;
3653;SDS011;70277;54.302;10.064;2024-03-23T05:38:22;19.73;;;4.38;;
3653;SDS011;70277;54.302;10.064;2024-03-23T05:40:54;26.98;;;4.70;;
3653;SDS011;70277;54.302;10.064;2024-03-23T05:43:20;35.95;;;5.45;;
3653;SDS011;70277;54.302;10.064;2024-03-23T05:45:52;20.58;;;4.47;;
3653;SDS011;70277;54.302;10.064;2024-03-23T05:48:19;27.92;;;5.38;;
3653;SDS011;70277;54.302;10.064;2024-03-23T05:50:44;34.72;;;5.47;;
3653;SDS011;70277;54.302;10.064;2024-03-23T05:53:10;45.95;;;5.43;;
3653;SDS011;70277;54.302;10.064;2024-03-23T05:55:35;29.48;;;6.07;;
3653;SDS011;70277;54.302;10.064;2024-03-23T05:58:01;39.85;;;5.97;;
3653;SDS011;70277;54.302;10.064;2024-03-23T06:00:26;33.25;;;6.30;;
3653;SDS011;70277;54.302;10.064;2024-03-23T06:02:52;26.63;;;4.80;;
3653;SDS011;70277;54.302;10.064;2024-03-23T06:05:17;30.90;;;5.53;;
3653;SDS011;70277;54.302;10.064;2024-03-23T06:07:43;28.38;;;4.70;;
3653;SDS011;70277;54.302;10.064;2024-03-23T06:10:08;29.27;;;5.57;;
3653;SDS011;70277;54.302;10.064;2024-03-23T06:12:34;50.20;;;7.38;;
3653;SDS011;70277;54.302;10.064;2024-03-23T06:15:00;35.55;;;4.97;;
3653;SDS011;70277;54.302;10.064;2024-03-23T06:17:25;33.45;;;5.40;;
3653;SDS011;70277;54.302;10.064;2024-03-23T06:19:51;35.67;;;5.68;;
3653;SDS011;70277;54.302;10.064;2024-03-23T06:22:17;24.65;;;4.95;;
3653;SDS011;70277;54.302;10.064;2024-03-23T06:24:42;24.35;;;4.68;;
3653;SDS011;70277;54.302;10.064;2024-03-23T06:27:08;28.50;;;5.03;;
3653;SDS011;70277;54.302;10.064;2024-03-23T06:29:33;39.17;;;6.95;;
3653;SDS011;70277;54.302;10.064;2024-03-23T06:31:59;29.75;;;6.50;;
3653;SDS011;70277;54.302;10.064;2024-03-23T06:34:25;45.05;;;6.00;;
3653;SDS011;70277;54.302;10.064;2024-03-23T06:36:50;27.60;;;4.80;;
3653;SDS011;70277;54.302;10.064;2024-03-23T06:39:16;31.80;;;5.13;;
3653;SDS011;70277;54.302;10.064;2024-03-23T06:41:42;37.70;;;6.18;;
3653;SDS011;70277;54.302;10.064;2024-03-23T06:44:08;28.65;;;4.95;;
3653;SDS011;70277;54.302;10.064;2024-03-23T06:46:34;37.22;;;6.10;;
3653;SDS011;70277;54.302;10.064;2024-03-23T06:48:59;35.47;;;7.03;;
3653;SDS011;70277;54.302;10.064;2024-03-23T06:51:25;41.50;;;6.38;;
3653;SDS011;70277;54.302;10.064;2024-03-23T06:53:50;39.45;;;5.25;;
3653;SDS011;70277;54.302;10.064;2024-03-23T06:56:16;42.00;;;5.85;;
3653;SDS011;70277;54.302;10.064;2024-03-23T06:58:42;44.42;;;5.20;;
3653;SDS011;70277;54.302;10.064;2024-03-23T07:01:07;31.38;;;5.95;;
3653;SDS011;70277;54.302;10.064;2024-03-23T07:03:33;37.75;;;5.43;;
3653;SDS011;70277;54.302;10.064;2024-03-23T07:05:58;35.38;;;5.72;;
3653;SDS011;70277;54.302;10.064;2024-03-23T07:08:24;40.15;;;6.07;;
3653;SDS011;70277;54.302;10.064;2024-03-23T07:10:49;35.55;;;6.05;;
3653;SDS011;70277;54.302;10.064;2024-03-23T07:13:15;31.65;;;5.28;;
3653;SDS011;70277;54.302;10.064;2024-03-23T07:15:42;33.88;;;5.72;;
3653;SDS011;70277;54.302;10.064;2024-03-23T07:18:07;29.33;;;4.82;;
3653;SDS011;70277;54.302;10.064;2024-03-23T07:20:33;26.00;;;4.45;;
3653;SDS011;70277;54.302;10.064;2024-03-23T07:22:59;35.15;;;4.97;;
3653;SDS011;70277;54.302;10.064;2024-03-23T07:25:25;37.88;;;5.75;;
3653;SDS011;70277;54.302;10.064;2024-03-23T07:27:55;27.88;;;4.97;;
3653;SDS011;70277;54.302;10.064;2024-03-23T07:30:20;26.45;;;5.05;;
3653;SDS011;70277;54.302;10.064;2024-03-23T07:32:46;29.67;;;4.75;;
3653;SDS011;70277;54.302;10.064;2024-03-23T07:35:11;32.92;;;5.13;;
3653;SDS011;70277;54.302;10.064;2024-03-23T07:37:37;23.42;;;4.97;;
3653;SDS011;70277;54.302;10.064;2024-03-23T07:40:03;29.80;;;5.25;;
3653;SDS011;70277;54.302;10.064;2024-03-23T07:42:29;27.63;;;5.13;;
3653;SDS011;70277;54.302;10.064;2024-03-23T07:44:54;23.52;;;5.15;;
3653;SDS011;70277;54.302;10.064;2024-03-23T07:47:22;26.65;;;4.97;;
3653;SDS011;70277;54.302;10.064;2024-03-23T07:49:47;30.98;;;5.32;;
3653;SDS011;70277;54.302;10.064;2024-03-23T07:52:13;25.83;;;5.20;;
3653;SDS011;70277;54.302;10.064;2024-03-23T07:54:39;25.77;;;5.75;;
3653;SDS011;70277;54.302;10.064;2024-03-23T07:57:05;35.83;;;5.90;;
3653;SDS011;70277;54.302;10.064;2024-03-23T07:59:31;30.27;;;4.82;;
3653;SDS011;70277;54.302;10.064;2024-03-23T08:01:59;22.55;;;4.38;;
3653;SDS011;70277;54.302;10.064;2024-03-23T08:04:25;32.35;;;6.13;;
3653;SDS011;70277;54.302;10.064;2024-03-23T08:06:50;26.20;;;6.05;;
3653;SDS011;70277;54.302;10.064;2024-03-23T08:09:16;23.67;;;5.03;;
3653;SDS011;70277;54.302;10.064;2024-03-23T08:11:42;26.50;;;4.22;;
3653;SDS011;70277;54.302;10.064;2024-03-23T08:14:10;26.45;;;5.22;;
3653;SDS011;70277;54.302;10.064;2024-03-23T08:16:36;16.55;;;4.20;;
3653;SDS011;70277;54.302;10.064;2024-03-23T08:19:01;24.33;;;4.50;;
3653;SDS011;70277;54.302;10.064;2024-03-23T08:21:29;24.08;;;4.45;;
3653;SDS011;70277;54.302;10.064;2024-03-23T08:23:54;22.95;;;4.85;;
3653;SDS011;70277;54.302;10.064;2024-03-23T08:26:20;26.88;;;6.30;;
3653;SDS011;70277;54.302;10.064;2024-03-23T08:28:45;26.85;;;4.90;;
3653;SDS011;70277;54.302;10.064;2024-03-23T08:31:11;21.70;;;5.57;;
3653;SDS011;70277;54.302;10.064;2024-03-23T08:33:38;23.65;;;7.15;;
3653;SDS011;70277;54.302;10.064;2024-03-23T08:36:08;25.98;;;5.13;;
3653;SDS011;70277;54.302;10.064;2024-03-23T08:38:35;16.08;;;4.25;;
3653;SDS011;70277;54.302;10.064;2024-03-23T08:41:04;20.73;;;4.40;;
3653;SDS011;70277;54.302;10.064;2024-03-23T08:43:32;21.33;;;5.65;;
3653;SDS011;70277;54.302;10.064;2024-03-23T08:46:07;19.17;;;4.63;;
3653;SDS011;70277;54.302;10.064;2024-03-23T08:48:34;15.23;;;3.58;;
3653;SDS011;70277;54.302;10.064;2024-03-23T08:51:01;25.42;;;4.75;;
3653;SDS011;70277;54.302;10.064;2024-03-23T08:53:27;15.52;;;4.28;;
3653;SDS011;70277;54.302;10.064;2024-03-23T08:55:55;21.00;;;4.00;;
3653;SDS011;70277;54.302;10.064;2024-03-23T08:58:21;19.38;;;3.22;;
3653;SDS011;70277;54.302;10.064;2024-03-23T09:00:49;18.40;;;3.25;;
3653;SDS011;70277;54.302;10.064;2024-03-23T09:03:15;20.55;;;2.97;;
3653;SDS011;70277;54.302;10.064;2024-03-23T09:05:41;20.30;;;2.85;;
3653;SDS011;70277;54.302;10.064;2024-03-23T09:08:06;25.33;;;3.58;;
3653;SDS011;70277;54.302;10.064;2024-03-23T09:10:39;15.63;;;2.45;;
3653;SDS011;70277;54.302;10.064;2024-03-23T09:13:05;16.60;;;3.55;;
3653;SDS011;70277;54.302;10.064;2024-03-23T09:15:32;17.58;;;2.33;;
3653;SDS011;70277;54.302;10.064;2024-03-23T09:17:59;9.93;;;2.35;;
3653;SDS011;70277;54.302;10.064;2024-03-23T09:20:25;11.80;;;2.10;;
3653;SDS011;70277;54.302;10.064;2024-03-23T09:22:51;8.57;;;1.70;;
3653;SDS011;70277;54.302;10.064;2024-03-23T09:25:17;7.10;;;1.02;;
3653;SDS011;70277;54.302;10.064;2024-03-23T09:27:42;6.55;;;1.48;;
3653;SDS011;70277;54.302;10.064;2024-03-23T09:30:08;8.15;;;1.08;;
3653;SDS011;70277;54.302;10.064;2024-03-23T09:32:35;11.02;;;2.20;;
3653;SDS011;70277;54.302;10.064;2024-03-23T09:35:00;9.63;;;1.67;;
3653;SDS011;70277;54.302;10.064;2024-03-23T09:37:26;12.10;;;1.98;;
3653;SDS011;70277;54.302;10.064;2024-03-23T09:39:52;11.63;;;2.03;;
3653;SDS011;70277;54.302;10.064;2024-03-23T09:42:17;9.38;;;1.33;;
3653;SDS011;70277;54.302;10.064;2024-03-23T09:44:43;3.53;;;1.33;;
3653;SDS011;70277;54.302;10.064;2024-03-23T09:47:09;11.07;;;1.60;;
3653;SDS011;70277;54.302;10.064;2024-03-23T09:49:35;7.22;;;1.35;;
3653;SDS011;70277;54.302;10.064;2024-03-23T09:52:03;8.02;;;1.35;;
3653;SDS011;70277;54.302;10.064;2024-03-23T09:54:29;8.55;;;1.23;;
3653;SDS011;70277;54.302;10.064;2024-03-23T09:56:55;5.20;;;0.65;;
3653;SDS011;70277;54.302;10.064;2024-03-23T09:59:21;3.40;;;0.80;;
3653;SDS011;70277;54.302;10.064;2024-03-23T10:01:46;8.15;;;1.15;;
3653;SDS011;70277;54.302;10.064;2024-03-23T10:04:35;4.65;;;0.90;;
3653;SDS011;70277;54.302;10.064;2024-03-23T10:07:11;9.30;;;1.38;;
3653;SDS011;70277;54.302;10.064;2024-03-23T10:12:20;7.72;;;2.53;;
3653;SDS011;70277;54.302;10.064;2024-03-23T10:14:46;13.15;;;1.55;;
3653;SDS011;70277;54.302;10.064;2024-03-23T10:17:13;4.18;;;0.82;;
3653;SDS011;70277;54.302;10.064;2024-03-23T10:19:45;7.45;;;1.08;;
3653;SDS011;70277;54.302;10.064;2024-03-23T10:22:17;8.05;;;0.95;;
3653;SDS011;70277;54.302;10.064;2024-03-23T10:24:51;8.00;;;1.50;;
3653;SDS011;70277;54.302;10.064;2024-03-23T10:27:17;9.50;;;1.63;;
3653;SDS011;70277;54.302;10.064;2024-03-23T10:29:45;7.75;;;1.17;;
3653;SDS011;70277;54.302;10.064;2024-03-23T10:32:14;16.48;;;1.65;;
3653;SDS011;70277;54.302;10.064;2024-03-23T10:34:41;7.32;;;1.40;;
3653;SDS011;70277;54.302;10.064;2024-03-23T10:37:07;6.70;;;1.38;;
3653;SDS011;70277;54.302;10.064;2024-03-23T10:39:33;12.30;;;2.10;;
3653;SDS011;70277;54.302;10.064;2024-03-23T10:42:04;12.23;;;1.33;;
3653;SDS011;70277;54.302;10.064;2024-03-23T10:44:31;17.33;;;2.00;;
3653;SDS011;70277;54.302;10.064;2024-03-23T10:46:58;9.05;;;1.90;;
3653;SDS011;70277;54.302;10.064;2024-03-23T10:49:34;13.48;;;2.22;;
3653;SDS011;70277;54.302;10.064;2024-03-23T10:52:04;10.35;;;1.65;;
3653;SDS011;70277;54.302;10.064;2024-03-23T10:54:31;4.57;;;1.50;;
3653;SDS011;70277;54.302;10.064;2024-03-23T10:59:41;10.63;;;1.60;;
3653;SDS011;70277;54.302;10.064;2024-03-23T11:02:08;16.50;;;1.80;;
3653;SDS011;70277;54.302;10.064;2024-03-23T11:04:44;8.55;;;1.65;;
3653;SDS011;70277;54.302;10.064;2024-03-23T11:09:53;9.70;;;1.52;;
3653;SDS011;70277;54.302;10.064;2024-03-23T11:14:48;16.02;;;1.70;;
3653;SDS011;70277;54.302;10.064;2024-03-23T11:17:19;12.25;;;1.17;;
3653;SDS011;70277;54.302;10.064;2024-03-23T11:19:58;11.48;;;1.80;;
3653;SDS011;70277;54.302;10.064;2024-03-23T11:25:22;8.40;;;2.13;;
3653;SDS011;70277;54.302;10.064;2024-03-23T11:27:52;13.35;;;1.65;;
3653;SDS011;70277;54.302;10.064;2024-03-23T11:30:23;12.57;;;1.55;;
3653;SDS011;70277;54.302;10.064;2024-03-23T11:32:50;6.78;;;1.20;;
3653;SDS011;70277;54.302;10.064;2024-03-23T11:38:14;4.85;;;1.10;;
3653;SDS011;70277;54.302;10.064;2024-03-23T11:40:43;4.45;;;0.70;;
3653;SDS011;70277;54.302;10.064;2024-03-23T11:43:14;4.22;;;0.73;;
3653;SDS011;70277;54.302;10.064;2024-03-23T11:50:46;2.95;;;1.05;;
3653;SDS011;70277;54.302;10.064;2024-03-23T11:55:42;9.02;;;1.30;;
3653;SDS011;70277;54.302;10.064;2024-03-23T11:58:18;6.28;;;1.17;;
3653;SDS011;70277;54.302;10.064;2024-03-23T12:01:09;2.72;;;0.95;;
3653;SDS011;70277;54.302;10.064;2024-03-23T12:03:35;10.93;;;1.50;;
3653;SDS011;70277;54.302;10.064;2024-03-23T12:06:02;6.30;;;1.52;;
3653;SDS011;70277;54.302;10.064;2024-03-23T12:08:29;6.07;;;1.25;;
3653;SDS011;70277;54.302;10.064;2024-03-23T12:13:36;8.38;;;1.50;;
3653;SDS011;70277;54.302;10.064;2024-03-23T12:18:39;7.97;;;1.70;;
3653;SDS011;70277;54.302;10.064;2024-03-23T12:21:06;7.97;;;1.70;;
3653;SDS011;70277;54.302;10.064;2024-03-23T12:23:32;18.92;;;1.80;;
3653;SDS011;70277;54.302;10.064;2024-03-23T12:25:58;11.32;;;1.67;;
3653;SDS011;70277;54.302;10.064;2024-03-23T12:28:23;7.72;;;1.17;;
3653;SDS011;70277;54.302;10.064;2024-03-23T12:30:49;5.95;;;0.93;;
3653;SDS011;70277;54.302;10.064;2024-03-23T12:33:14;5.20;;;0.90;;
3653;SDS011;70277;54.302;10.064;2024-03-23T12:35:40;7.35;;;0.90;;
3653;SDS011;70277;54.302;10.064;2024-03-23T12:38:05;5.40;;;1.50;;
3653;SDS011;70277;54.302;10.064;2024-03-23T12:40:31;9.90;;;2.03;;
3653;SDS011;70277;54.302;10.064;2024-03-23T12:42:57;8.85;;;1.45;;
3653;SDS011;70277;54.302;10.064;2024-03-23T12:45:23;10.98;;;1.60;;
3653;SDS011;70277;54.302;10.064;2024-03-23T12:47:48;6.85;;;1.50;;
3653;SDS011;70277;54.302;10.064;2024-03-23T12:50:14;9.93;;;1.45;;
3653;SDS011;70277;54.302;10.064;2024-03-23T12:52:39;9.07;;;1.35;;
3653;SDS011;70277;54.302;10.064;2024-03-23T12:55:05;9.93;;;1.50;;
3653;SDS011;70277;54.302;10.064;2024-03-23T12:57:31;10.57;;;1.63;;
3653;SDS011;70277;54.302;10.064;2024-03-23T12:59:57;8.35;;;1.25;;
3653;SDS011;70277;54.302;10.064;2024-03-23T13:02:23;5.10;;;1.15;;
3653;SDS011;70277;54.302;10.064;2024-03-23T13:04:52;5.95;;;1.38;;
3653;SDS011;70277;54.302;10.064;2024-03-23T13:07:18;4.33;;;1.53;;
3653;SDS011;70277;54.302;10.064;2024-03-23T13:09:44;4.57;;;1.30;;
3653;SDS011;70277;54.302;10.064;2024-03-23T13:12:10;5.75;;;1.15;;
3653;SDS011;70277;54.302;10.064;2024-03-23T13:14:39;4.72;;;1.17;;
3653;SDS011;70277;54.302;10.064;2024-03-23T13:17:05;5.60;;;1.33;;
3653;SDS011;70277;54.302;10.064;2024-03-23T13:19:33;6.80;;;1.08;;
3653;SDS011;70277;54.302;10.064;2024-03-23T13:21:59;11.15;;;1.50;;
3653;SDS011;70277;54.302;10.064;2024-03-23T13:24:26;12.77;;;1.70;;
3653;SDS011;70277;54.302;10.064;2024-03-23T13:26:52;9.88;;;1.25;;
3653;SDS011;70277;54.302;10.064;2024-03-23T13:29:19;9.88;;;1.45;;
3653;SDS011;70277;54.302;10.064;2024-03-23T13:31:48;15.10;;;1.40;;
3653;SDS011;70277;54.302;10.064;2024-03-23T13:34:15;10.20;;;1.55;;
3653;SDS011;70277;54.302;10.064;2024-03-23T13:36:44;5.65;;;1.27;;
3653;SDS011;70277;54.302;10.064;2024-03-23T13:39:11;11.98;;;1.35;;
3653;SDS011;70277;54.302;10.064;2024-03-23T13:41:43;11.40;;;1.40;;
3653;SDS011;70277;54.302;10.064;2024-03-23T13:44:13;8.75;;;1.27;;
3653;SDS011;70277;54.302;10.064;2024-03-23T13:46:42;10.45;;;2.40;;
3653;SDS011;70277;54.302;10.064;2024-03-23T13:49:24;6.93;;;2.42;;
3653;SDS011;70277;54.302;10.064;2024-03-23T13:51:59;14.00;;;5.95;;
3653;SDS011;70277;54.302;10.064;2024-03-23T13:54:25;7.97;;;3.63;;
3653;SDS011;70277;54.302;10.064;2024-03-23T13:56:52;6.50;;;1.70;;
3653;SDS011;70277;54.302;10.064;2024-03-23T13:59:18;9.80;;;3.55;;
3653;SDS011;70277;54.302;10.064;2024-03-23T14:01:44;8.98;;;2.20;;
3653;SDS011;70277;54.302;10.064;2024-03-23T14:04:11;8.07;;;1.10;;
3653;SDS011;70277;54.302;10.064;2024-03-23T14:06:37;7.72;;;1.42;;
3653;SDS011;70277;54.302;10.064;2024-03-23T14:09:03;14.70;;;1.30;;
3653;SDS011;70277;54.302;10.064;2024-03-23T14:11:29;8.82;;;1.50;;
3653;SDS011;70277;54.302;10.064;2024-03-23T14:13:55;11.32;;;1.48;;
3653;SDS011;70277;54.302;10.064;2024-03-23T14:16:21;15.88;;;1.90;;
3653;SDS011;70277;54.302;10.064;2024-03-23T14:18:46;13.43;;;2.13;;
3653;SDS011;70277;54.302;10.064;2024-03-23T14:21:13;12.45;;;2.17;;
3653;SDS011;70277;54.302;10.064;2024-03-23T14:23:38;5.43;;;1.85;;
3653;SDS011;70277;54.302;10.064;2024-03-23T14:26:06;7.93;;;1.08;;
3653;SDS011;70277;54.302;10.064;2024-03-23T14:28:31;7.25;;;1.33;;
3653;SDS011;70277;54.302;10.064;2024-03-23T14:30:57;10.65;;;1.58;;
3653;SDS011;70277;54.302;10.064;2024-03-23T14:33:23;8.02;;;1.00;;
3653;SDS011;70277;54.302;10.064;2024-03-23T14:35:56;9.05;;;1.73;;
3653;SDS011;70277;54.302;10.064;2024-03-23T14:38:24;12.13;;;1.50;;
3653;SDS011;70277;54.302;10.064;2024-03-23T14:40:50;8.98;;;1.98;;
3653;SDS011;70277;54.302;10.064;2024-03-23T14:43:19;10.05;;;1.40;;
3653;SDS011;70277;54.302;10.064;2024-03-23T14:48:32;8.00;;;1.50;;
3653;SDS011;70277;54.302;10.064;2024-03-23T14:50:59;7.97;;;1.27;;
3653;SDS011;70277;54.302;10.064;2024-03-23T14:53:25;6.10;;;1.30;;
3653;SDS011;70277;54.302;10.064;2024-03-23T14:55:55;9.48;;;1.60;;
3653;SDS011;70277;54.302;10.064;2024-03-23T14:58:25;11.63;;;1.70;;
3653;SDS011;70277;54.302;10.064;2024-03-23T15:00:50;13.18;;;2.38;;
3653;SDS011;70277;54.302;10.064;2024-03-23T15:03:17;12.05;;;1.90;;
3653;SDS011;70277;54.302;10.064;2024-03-23T15:05:53;13.00;;;2.05;;
3653;SDS011;70277;54.302;10.064;2024-03-23T15:08:19;13.43;;;2.10;;
3653;SDS011;70277;54.302;10.064;2024-03-23T15:10:45;11.32;;;1.58;;
3653;SDS011;70277;54.302;10.064;2024-03-23T15:13:10;12.40;;;1.83;;
3653;SDS011;70277;54.302;10.064;2024-03-23T15:15:39;8.10;;;1.58;;
3653;SDS011;70277;54.302;10.064;2024-03-23T15:18:13;12.35;;;2.35;;
3653;SDS011;70277;54.302;10.064;2024-03-23T15:20:40;11.23;;;2.17;;
3653;SDS011;70277;54.302;10.064;2024-03-23T15:23:18;8.20;;;1.63;;
3653;SDS011;70277;54.302;10.064;2024-03-23T15:25:45;8.20;;;1.58;;
3653;SDS011;70277;54.302;10.064;2024-03-23T15:28:10;11.75;;;1.60;;
3653;SDS011;70277;54.302;10.064;2024-03-23T15:30:36;17.08;;;2.42;;
3653;SDS011;70277;54.302;10.064;2024-03-23T15:33:01;14.32;;;1.73;;
3653;SDS011;70277;54.302;10.064;2024-03-23T15:35:27;17.20;;;1.83;;
3653;SDS011;70277;54.302;10.064;2024-03-23T15:37:53;9.82;;;1.70;;
3653;SDS011;70277;54.302;10.064;2024-03-23T15:40:19;8.80;;;1.42;;
3653;SDS011;70277;54.302;10.064;2024-03-23T15:42:44;13.38;;;2.55;;
3653;SDS011;70277;54.302;10.064;2024-03-23T15:45:10;13.65;;;1.88;;
3653;SDS011;70277;54.302;10.064;2024-03-23T15:47:36;13.82;;;1.92;;
3653;SDS011;70277;54.302;10.064;2024-03-23T15:50:02;14.55;;;2.13;;
3653;SDS011;70277;54.302;10.064;2024-03-23T15:52:33;13.38;;;1.67;;
3653;SDS011;70277;54.302;10.064;2024-03-23T15:55:00;9.93;;;2.42;;
3653;SDS011;70277;54.302;10.064;2024-03-23T15:57:26;10.20;;;1.95;;
3653;SDS011;70277;54.302;10.064;2024-03-23T15:59:52;9.60;;;2.17;;